createdAt,value
2018-11-06T00:01:23.471Z,82.52
2018-11-06T00:03:41.545Z,82.33
2018-11-06T00:05:53.999Z,81.95
2018-11-06T00:08:06.214Z,81.59
2018-11-06T00:10:18.494Z,81.52
2018-11-06T00:12:30.714Z,81.34
2018-11-06T00:14:42.923Z,81.00
2018-11-06T00:16:55.131Z,81.46
2018-11-06T00:19:07.363Z,80.97
2018-11-06T00:21:19.538Z,81.31
2018-11-06T00:23:31.820Z,81.29
2018-11-06T00:25:44.031Z,81.30
2018-11-06T00:27:56.261Z,81.79
2018-11-06T00:30:10.586Z,81.75
2018-11-06T00:32:22.925Z,81.01
2018-11-06T00:34:35.700Z,81.30
2018-11-06T00:36:47.902Z,81.24
2018-11-06T00:39:00.110Z,81.79
2018-11-06T00:41:12.343Z,82.11
2018-11-06T00:43:24.566Z,81.32
2018-11-06T00:45:36.846Z,81.44
2018-11-06T00:47:49.048Z,81.71
2018-11-06T00:50:01.250Z,81.79
2018-11-06T00:52:13.498Z,82.16
2018-11-06T00:54:25.679Z,81.85
2018-11-06T00:56:37.858Z,82.44
2018-11-06T00:58:50.138Z,82.75
2018-11-06T01:01:02.407Z,82.92
2018-11-06T01:03:14.622Z,83.19
2018-11-06T01:05:27.674Z,82.57
2018-11-06T01:07:40.279Z,82.94
2018-11-06T01:09:52.892Z,82.43
2018-11-06T01:12:05.161Z,82.28
2018-11-06T01:14:17.353Z,82.08
2018-11-06T01:16:29.575Z,82.09
2018-11-06T01:18:42.059Z,82.92
2018-11-06T01:20:54.237Z,81.98
2018-11-06T01:23:06.435Z,81.92
2018-11-06T01:25:18.695Z,81.92
2018-11-06T01:27:30.966Z,82.41
2018-11-06T01:29:43.226Z,81.82
2018-11-06T01:31:55.416Z,82.63
2018-11-06T01:34:07.654Z,82.59
2018-11-06T01:36:19.889Z,82.47
2018-11-06T01:38:32.160Z,82.16
2018-11-06T01:40:44.350Z,81.80
2018-11-06T01:42:56.562Z,81.99
2018-11-06T01:45:10.782Z,82.03
2018-11-06T01:47:23.051Z,82.32
2018-11-06T01:49:35.406Z,82.72
2018-11-06T01:51:47.624Z,82.05
2018-11-06T01:53:59.908Z,82.10
2018-11-06T01:56:12.150Z,81.47
2018-11-06T01:58:24.328Z,81.40
2018-11-06T02:00:36.530Z,81.52
2018-11-06T02:02:48.747Z,82.29
2018-11-06T02:05:00.950Z,81.55
2018-11-06T02:07:13.169Z,81.57
2018-11-06T02:09:25.350Z,81.22
2018-11-06T02:11:37.610Z,81.98
2018-11-06T02:13:49.791Z,82.29
2018-11-06T02:16:02.008Z,81.70
2018-11-06T02:18:14.235Z,82.75
2018-11-06T02:20:26.418Z,81.93
2018-11-06T02:22:39.410Z,81.63
2018-11-06T02:24:51.653Z,81.79
2018-11-06T02:27:04.228Z,82.02
2018-11-06T02:29:16.425Z,81.50
2018-11-06T02:31:28.646Z,81.77
2018-11-06T02:33:40.871Z,81.67
2018-11-06T02:35:53.207Z,82.36
2018-11-06T02:38:05.482Z,82.12
2018-11-06T02:40:17.710Z,82.01
2018-11-06T02:42:29.982Z,81.96
2018-11-06T02:44:42.211Z,82.81
2018-11-06T02:46:54.361Z,82.51
2018-11-06T02:49:06.667Z,82.49
2018-11-06T02:51:18.871Z,81.67
2018-11-06T02:53:31.065Z,81.63
2018-11-06T02:55:43.338Z,82.13
2018-11-06T02:57:55.573Z,81.94
2018-11-06T03:00:10.159Z,81.65
2018-11-06T03:02:22.371Z,82.18
2018-11-06T03:04:34.592Z,82.25
2018-11-06T03:06:46.766Z,82.42
2018-11-06T03:08:58.980Z,82.57
2018-11-06T03:11:11.154Z,82.27
2018-11-06T03:13:23.398Z,83.10
2018-11-06T03:15:35.623Z,83.25
2018-11-06T03:17:47.882Z,83.19
2018-11-06T03:20:00.095Z,82.25
2018-11-06T03:22:12.279Z,83.30
2018-11-06T03:24:24.493Z,83.05
2018-11-06T03:26:36.703Z,82.97
2018-11-06T03:28:48.904Z,83.03
2018-11-06T03:31:01.118Z,82.67
2018-11-06T03:33:13.323Z,83.19
2018-11-06T03:35:25.521Z,82.59
2018-11-06T03:37:37.838Z,82.74
2018-11-06T03:39:50.023Z,82.60
2018-11-06T03:42:02.267Z,81.85
2018-11-06T03:44:14.498Z,82.08
2018-11-06T03:46:26.706Z,81.80
2018-11-06T03:48:38.982Z,81.72
2018-11-06T03:50:51.226Z,81.66
2018-11-06T03:53:03.550Z,81.90
2018-11-06T03:55:15.788Z,82.08
2018-11-06T03:57:28.024Z,81.72
2018-11-06T03:59:40.255Z,82.30
2018-11-06T04:01:52.482Z,82.39
2018-11-06T04:04:05.166Z,82.36
2018-11-06T04:06:17.379Z,81.78
2018-11-06T04:08:29.615Z,81.69
2018-11-06T04:10:41.901Z,81.47
2018-11-06T04:12:54.111Z,82.09
2018-11-06T04:15:06.689Z,82.38
2018-11-06T04:17:18.898Z,81.54
2018-11-06T04:19:31.116Z,82.32
2018-11-06T04:21:43.293Z,81.56
2018-11-06T04:23:55.518Z,81.79
2018-11-06T04:26:07.826Z,81.62
2018-11-06T04:28:20.031Z,81.65
2018-11-06T04:30:32.246Z,81.72
2018-11-06T04:32:44.450Z,81.15
2018-11-06T04:34:56.659Z,81.75
2018-11-06T04:37:08.845Z,81.18
2018-11-06T04:39:21.059Z,81.89
2018-11-06T04:41:33.267Z,81.08
2018-11-06T04:43:45.552Z,81.28
2018-11-06T04:45:57.745Z,81.38
2018-11-06T04:48:09.959Z,81.71
2018-11-06T04:50:22.290Z,81.80
2018-11-06T04:52:34.488Z,81.61
2018-11-06T04:54:46.767Z,81.33
2018-11-06T04:56:58.946Z,82.04
2018-11-06T04:59:11.204Z,81.35
2018-11-06T05:01:23.894Z,82.10
2018-11-06T05:03:40.686Z,82.13
2018-11-06T05:05:52.900Z,81.54
2018-11-06T05:08:05.095Z,81.68
2018-11-06T05:10:17.297Z,81.92
2018-11-06T05:12:29.497Z,81.88
2018-11-06T05:14:41.754Z,81.88
2018-11-06T05:16:53.965Z,82.78
2018-11-06T05:19:06.197Z,82.18
2018-11-06T05:21:18.414Z,82.82
2018-11-06T05:23:30.633Z,82.01
2018-11-06T05:25:42.858Z,82.66
2018-11-06T05:27:55.047Z,82.56
2018-11-06T05:30:08.358Z,82.40
2018-11-06T05:32:20.584Z,83.06
2018-11-06T05:34:32.809Z,82.67
2018-11-06T05:36:45.014Z,83.52
2018-11-06T05:38:57.302Z,83.03
2018-11-06T05:41:09.467Z,83.50
2018-11-06T05:43:21.659Z,83.74
2018-11-06T05:45:34.010Z,84.42
2018-11-06T05:47:46.136Z,84.41
2018-11-06T05:49:58.371Z,83.77
2018-11-06T05:52:10.715Z,83.95
2018-11-06T05:54:22.927Z,83.77
2018-11-06T05:56:35.114Z,82.96
2018-11-06T05:58:47.314Z,83.63
2018-11-06T06:00:59.766Z,83.12
2018-11-06T06:03:12.014Z,83.84
2018-11-06T06:05:24.246Z,82.95
2018-11-06T06:07:36.607Z,83.79
2018-11-06T06:09:48.886Z,83.85
2018-11-06T06:12:01.119Z,83.29
2018-11-06T06:14:13.369Z,84.04
2018-11-06T06:16:25.609Z,84.14
2018-11-06T06:18:37.813Z,83.09
2018-11-06T06:20:50.025Z,83.01
2018-11-06T06:23:02.296Z,83.19
2018-11-06T06:25:14.539Z,84.02
2018-11-06T06:27:27.014Z,84.28
2018-11-06T06:29:39.278Z,83.66
2018-11-06T06:31:51.451Z,84.32
2018-11-06T06:34:03.727Z,83.87
2018-11-06T06:36:15.927Z,83.65
2018-11-06T06:38:28.133Z,83.45
2018-11-06T06:40:40.328Z,83.43
2018-11-06T06:42:52.541Z,83.38
2018-11-06T06:45:06.703Z,83.33
2018-11-06T06:47:18.962Z,84.15
2018-11-06T06:49:31.189Z,83.30
2018-11-06T06:51:43.443Z,83.51
2018-11-06T06:53:55.704Z,84.01
2018-11-06T06:56:07.928Z,84.46
2018-11-06T06:58:20.154Z,83.66
2018-11-06T07:00:32.371Z,84.02
2018-11-06T07:02:44.599Z,83.36
2018-11-06T07:04:56.802Z,83.24
2018-11-06T07:07:09.047Z,83.04
2018-11-06T07:09:21.258Z,83.35
2018-11-06T07:11:33.493Z,83.33
2018-11-06T07:13:45.712Z,83.27
2018-11-06T07:15:57.932Z,83.07
2018-11-06T07:18:10.135Z,82.96
2018-11-06T07:20:23.904Z,83.01
2018-11-06T07:22:36.067Z,82.68
2018-11-06T07:24:48.298Z,82.41
2018-11-06T07:27:00.489Z,82.43
2018-11-06T07:29:12.724Z,82.48
2018-11-06T07:31:25.295Z,82.98
2018-11-06T07:33:37.475Z,83.22
2018-11-06T07:35:49.823Z,82.59
2018-11-06T07:38:02.001Z,83.38
2018-11-06T07:40:15.514Z,82.98
2018-11-06T07:42:27.696Z,81.02
2018-11-06T07:44:39.921Z,80.57
2018-11-06T07:46:52.185Z,80.14
2018-11-06T07:49:05.067Z,77.79
2018-11-06T07:51:17.358Z,77.03
2018-11-06T07:53:29.632Z,76.52
2018-11-06T07:55:41.963Z,74.50
2018-11-06T07:57:54.075Z,74.95
2018-11-06T08:00:10.241Z,73.72
2018-11-06T08:02:22.466Z,74.01
2018-11-06T08:04:34.663Z,74.00
2018-11-06T08:06:46.824Z,73.57
2018-11-06T08:08:59.041Z,73.40
2018-11-06T08:11:11.331Z,72.74
2018-11-06T08:13:23.548Z,72.29
2018-11-06T08:15:35.770Z,71.40
2018-11-06T08:17:48.168Z,69.33
2018-11-06T08:20:00.421Z,68.75
2018-11-06T08:22:12.599Z,66.98
2018-11-06T08:24:24.791Z,67.39
2018-11-06T08:26:37.057Z,67.11
2018-11-06T08:28:49.260Z,66.55
2018-11-06T08:31:01.837Z,67.05
2018-11-06T08:33:13.644Z,67.15
2018-11-06T08:35:25.846Z,66.78
2018-11-06T08:37:38.061Z,65.14
2018-11-06T08:39:50.330Z,64.84
2018-11-06T08:42:02.523Z,63.79
2018-11-06T08:44:14.759Z,65.01
2018-11-06T08:46:26.964Z,64.45
2018-11-06T08:48:39.183Z,64.38
2018-11-06T08:50:51.434Z,65.46
2018-11-06T08:53:03.786Z,65.37
2018-11-06T08:55:16.548Z,66.33
2018-11-06T08:57:28.823Z,65.69
2018-11-06T08:59:41.107Z,66.60
2018-11-06T09:01:53.331Z,66.75
2018-11-06T09:04:05.579Z,66.19
2018-11-06T09:06:17.790Z,66.94
2018-11-06T09:08:30.020Z,68.57
2018-11-06T09:10:42.284Z,68.84
2018-11-06T09:12:54.509Z,68.50
2018-11-06T09:15:08.222Z,68.76
2018-11-06T09:17:20.454Z,69.95
2018-11-06T09:19:32.630Z,70.11
2018-11-06T09:21:44.878Z,70.72
2018-11-06T09:23:57.126Z,70.58
2018-11-06T09:26:10.003Z,70.16
2018-11-06T09:28:22.224Z,71.09
2018-11-06T09:30:34.432Z,71.27
2018-11-06T09:32:46.686Z,71.08
2018-11-06T09:34:58.855Z,70.49
2018-11-06T09:37:11.077Z,71.77
2018-11-06T09:39:23.262Z,71.12
2018-11-06T09:41:35.585Z,70.94
2018-11-06T09:43:47.817Z,71.57
2018-11-06T09:46:00.044Z,72.08
2018-11-06T09:48:12.267Z,71.80
2018-11-06T09:50:24.493Z,71.08
2018-11-06T09:52:36.734Z,71.32
2018-11-06T09:54:49.801Z,70.64
2018-11-06T09:57:02.043Z,71.33
2018-11-06T09:59:14.283Z,71.86
2018-11-06T10:01:26.527Z,71.32
2018-11-06T10:03:38.741Z,72.19
2018-11-06T10:05:51.003Z,72.26
2018-11-06T10:08:03.268Z,72.21
2018-11-06T10:10:17.074Z,72.46
2018-11-06T10:12:29.406Z,72.40
2018-11-06T10:14:41.641Z,71.24
2018-11-06T10:16:53.839Z,72.34
2018-11-06T10:19:06.084Z,72.39
2018-11-06T10:21:18.343Z,72.06
2018-11-06T10:23:30.462Z,72.29
2018-11-06T10:25:42.680Z,73.17
2018-11-06T10:27:54.852Z,73.07
2018-11-06T10:30:09.232Z,72.72
2018-11-06T10:32:22.328Z,72.55
2018-11-06T10:34:34.570Z,73.24
2018-11-06T10:36:46.750Z,73.45
2018-11-06T10:38:58.976Z,73.43
2018-11-06T10:41:11.155Z,73.65
2018-11-06T10:43:23.374Z,73.29
2018-11-06T10:45:35.598Z,72.43
2018-11-06T10:47:48.334Z,73.08
2018-11-06T10:50:04.848Z,73.04
2018-11-06T10:52:17.385Z,73.71
2018-11-06T10:54:29.611Z,73.22
2018-11-06T10:56:41.825Z,73.65
2018-11-06T10:58:54.993Z,74.18
2018-11-06T11:01:12.966Z,73.99
2018-11-06T11:03:30.915Z,73.23
2018-11-06T11:05:43.132Z,73.45
2018-11-06T11:07:55.436Z,72.95
2018-11-06T11:10:07.643Z,74.14
2018-11-06T11:12:19.858Z,73.68
2018-11-06T11:14:32.894Z,73.97
2018-11-06T11:16:45.099Z,73.13
2018-11-06T11:18:57.325Z,73.86
2018-11-06T11:21:09.559Z,73.85
2018-11-06T11:23:22.899Z,73.69
2018-11-06T11:25:36.112Z,72.89
2018-11-06T11:27:48.318Z,72.85
2018-11-06T11:30:00.524Z,72.93
2018-11-06T11:32:12.725Z,72.95
2018-11-06T11:34:29.786Z,72.44
2018-11-06T11:36:42.016Z,72.47
2018-11-06T11:39:00.095Z,72.05
2018-11-06T11:41:15.311Z,71.56
2018-11-06T11:43:27.546Z,72.06
2018-11-06T11:45:39.778Z,72.02
2018-11-06T11:47:52.048Z,71.76
2018-11-06T11:50:05.062Z,72.78
2018-11-06T11:52:24.191Z,72.47
2018-11-06T11:54:37.362Z,72.09
2018-11-06T11:56:53.546Z,71.21
2018-11-06T11:59:05.840Z,71.86
2018-11-06T12:01:18.047Z,72.61
2018-11-06T12:03:30.282Z,71.69
2018-11-06T12:05:42.506Z,71.80
2018-11-06T12:07:54.746Z,71.30
2018-11-06T12:10:08.331Z,70.70
2018-11-06T12:12:20.546Z,70.08
2018-11-06T12:14:32.820Z,71.46
2018-11-06T12:16:45.007Z,70.30
2018-11-06T12:18:57.204Z,70.53
2018-11-06T12:21:09.451Z,70.38
2018-11-06T12:23:21.755Z,71.63
2018-11-06T12:25:34.140Z,69.35
2018-11-06T12:27:46.322Z,70.47
2018-11-06T12:29:58.590Z,70.51
2018-11-06T12:32:10.885Z,70.23
2018-11-06T12:34:23.152Z,70.85
2018-11-06T12:36:35.729Z,69.85
2018-11-06T12:38:47.907Z,69.73
2018-11-06T12:41:00.344Z,69.88
2018-11-06T12:43:12.611Z,69.80
2018-11-06T12:45:24.776Z,70.02
2018-11-06T12:47:37.047Z,69.32
2018-11-06T12:49:49.274Z,68.96
2018-11-06T12:52:02.531Z,69.09
2018-11-06T12:54:14.768Z,69.60
2018-11-06T12:56:27.066Z,69.27
2018-11-06T12:58:39.302Z,70.49
2018-11-06T13:00:51.635Z,70.82
2018-11-06T13:03:04.122Z,70.06
2018-11-06T13:05:16.369Z,70.54
2018-11-06T13:07:28.654Z,70.48
2018-11-06T13:09:40.846Z,70.01
2018-11-06T13:11:53.031Z,70.95
2018-11-06T13:14:05.417Z,70.61
2018-11-06T13:16:17.726Z,71.22
2018-11-06T13:18:30.707Z,71.01
2018-11-06T13:20:42.961Z,70.90
2018-11-06T13:22:55.227Z,71.62
2018-11-06T13:25:07.445Z,71.15
2018-11-06T13:27:21.465Z,71.37
2018-11-06T13:29:33.699Z,70.95
2018-11-06T13:31:45.939Z,71.02
2018-11-06T13:33:58.212Z,71.95
2018-11-06T13:36:10.423Z,71.90
2018-11-06T13:38:22.626Z,71.28
2018-11-06T13:40:34.898Z,72.19
2018-11-06T13:42:47.327Z,72.56
2018-11-06T13:44:59.570Z,72.88
2018-11-06T13:47:11.706Z,72.28
2018-11-06T13:49:25.068Z,72.63
2018-11-06T13:51:37.287Z,72.81
2018-11-06T13:53:49.555Z,72.12
2018-11-06T13:56:01.746Z,72.18
2018-11-06T13:58:13.954Z,72.45
2018-11-06T14:00:26.214Z,73.51
2018-11-06T14:02:38.454Z,73.40
2018-11-06T14:04:50.744Z,73.58
2018-11-06T14:07:02.959Z,73.17
2018-11-06T14:09:19.161Z,74.38
2018-11-06T14:11:32.297Z,73.62
2018-11-06T14:13:44.515Z,73.50
2018-11-06T14:15:56.770Z,74.22
2018-11-06T14:18:08.959Z,74.28
2018-11-06T14:20:23.161Z,73.55
2018-11-06T14:22:36.318Z,74.42
2018-11-06T14:24:48.577Z,74.66
2018-11-06T14:27:00.831Z,73.81
2018-11-06T14:29:13.027Z,74.66
2018-11-06T14:31:25.379Z,74.33
2018-11-06T14:33:37.639Z,73.64
2018-11-06T14:35:50.782Z,74.26
2018-11-06T14:38:02.969Z,73.51
2018-11-06T14:40:15.746Z,73.63
2018-11-06T14:42:28.078Z,74.39
2018-11-06T14:44:40.287Z,74.11
2018-11-06T14:46:52.539Z,74.59
2018-11-06T14:49:05.245Z,74.41
2018-11-06T14:51:20.304Z,74.47
2018-11-06T14:53:32.501Z,75.44
2018-11-06T14:55:44.850Z,74.67
2018-11-06T14:57:57.016Z,74.50
2018-11-06T15:00:15.388Z,74.66
2018-11-06T15:02:27.650Z,74.28
2018-11-06T15:04:39.847Z,75.08
2018-11-06T15:06:54.898Z,75.34
2018-11-06T15:09:09.785Z,75.52
2018-11-06T15:11:22.020Z,75.47
2018-11-06T15:13:34.384Z,75.44
2018-11-06T15:15:46.663Z,74.96
2018-11-06T15:17:58.904Z,74.81
2018-11-06T15:20:14.789Z,75.75
2018-11-06T15:22:27.063Z,75.15
2018-11-06T15:24:39.310Z,75.02
2018-11-06T15:26:51.543Z,75.33
2018-11-06T15:29:04.273Z,75.79
2018-11-06T15:31:16.515Z,75.02
2018-11-06T15:33:28.780Z,75.81
2018-11-06T15:35:41.059Z,76.22
2018-11-06T15:37:53.287Z,76.96
2018-11-06T15:40:08.659Z,76.11
2018-11-06T15:42:20.889Z,76.42
2018-11-06T15:44:33.176Z,77.13
2018-11-06T15:46:45.419Z,76.94
2018-11-06T15:48:57.658Z,77.97
2018-11-06T15:51:10.038Z,78.04
2018-11-06T15:53:22.421Z,78.25
2018-11-06T15:55:34.661Z,78.37
2018-11-06T15:57:46.975Z,78.65
2018-11-06T15:59:59.305Z,78.08
2018-11-06T16:02:11.589Z,78.77
2018-11-06T16:04:23.863Z,78.26
2018-11-06T16:06:36.072Z,79.37
2018-11-06T16:08:48.346Z,78.65
2018-11-06T16:11:00.658Z,79.58
2018-11-06T16:13:12.929Z,79.01
2018-11-06T16:15:25.202Z,79.73
2018-11-06T16:17:37.862Z,79.67
2018-11-06T16:19:50.139Z,79.19
2018-11-06T16:22:03.343Z,79.31
2018-11-06T16:24:15.591Z,78.57
2018-11-06T16:26:27.806Z,77.71
2018-11-06T16:28:40.038Z,77.58
2018-11-06T16:30:52.255Z,78.37
2018-11-06T16:33:05.598Z,77.60
2018-11-06T16:35:19.281Z,78.35
2018-11-06T16:37:31.571Z,77.55
2018-11-06T16:39:46.873Z,78.25
2018-11-06T16:41:59.171Z,78.30
2018-11-06T16:44:11.362Z,77.89
2018-11-06T16:46:23.603Z,77.50
2018-11-06T16:48:35.834Z,78.49
2018-11-06T16:50:48.101Z,77.68
2018-11-06T16:53:00.310Z,78.39
2018-11-06T16:55:12.935Z,78.53
2018-11-06T16:57:25.171Z,77.54
2018-11-06T16:59:37.445Z,78.02
2018-11-06T17:01:49.688Z,78.02
2018-11-06T17:04:01.937Z,78.25
2018-11-06T17:06:19.644Z,77.53
2018-11-06T17:08:32.007Z,78.59
2018-11-06T17:10:44.286Z,78.70
2018-11-06T17:12:56.575Z,78.25
2018-11-06T17:15:14.202Z,79.14
2018-11-06T17:17:26.484Z,79.12
2018-11-06T17:19:38.702Z,78.40
2018-11-06T17:21:50.892Z,79.14
2018-11-06T17:24:03.200Z,78.57
2018-11-06T17:26:15.459Z,79.05
2018-11-06T17:28:27.682Z,79.30
2018-11-06T17:30:39.970Z,79.16
2018-11-06T17:32:52.230Z,78.50
2018-11-06T17:35:05.207Z,79.37
2018-11-06T17:37:17.481Z,79.27
2018-11-06T17:39:29.773Z,78.87
2018-11-06T17:41:42.038Z,78.79
2018-11-06T17:43:54.303Z,79.49
2018-11-06T17:46:06.532Z,79.67
2018-11-06T17:48:18.756Z,78.89
2018-11-06T17:50:31.217Z,79.25
2018-11-06T17:52:43.598Z,79.51
2018-11-06T17:54:55.867Z,79.48
2018-11-06T17:57:08.090Z,79.11
2018-11-06T17:59:20.291Z,79.15
2018-11-06T18:01:32.575Z,79.36
2018-11-06T18:03:44.968Z,79.73
2018-11-06T18:05:57.183Z,79.85
2018-11-06T18:08:10.236Z,79.79
2018-11-06T18:10:22.560Z,80.12
2018-11-06T18:12:35.134Z,79.60
2018-11-06T18:14:47.369Z,80.92
2018-11-06T18:16:59.658Z,79.84
2018-11-06T18:19:11.881Z,80.66
2018-11-06T18:21:24.111Z,79.93
2018-11-06T18:23:36.355Z,80.70
2018-11-06T18:25:48.956Z,79.87
2018-11-06T18:28:00.925Z,79.85
2018-11-06T18:30:16.859Z,80.00
2018-11-06T18:32:29.090Z,80.36
2018-11-06T18:34:41.292Z,79.86
2018-11-06T18:36:53.561Z,80.33
2018-11-06T18:41:19.768Z,79.78
2018-11-06T18:43:32.055Z,79.85
2018-11-06T18:45:44.283Z,80.31
2018-11-06T18:47:56.526Z,79.54
2018-11-06T18:50:10.867Z,80.27
2018-11-06T18:52:23.130Z,80.12
2018-11-06T18:54:35.403Z,79.32
2018-11-06T18:56:47.713Z,80.02
2018-11-06T18:58:59.986Z,79.87
2018-11-06T19:01:12.314Z,79.91
2018-11-06T19:03:24.628Z,79.92
2018-11-06T19:05:36.903Z,79.97
2018-11-06T19:07:49.214Z,79.94
2018-11-06T19:10:01.506Z,79.51
2018-11-06T19:12:13.793Z,79.67
2018-11-06T19:14:26.047Z,79.98
2018-11-06T19:16:38.263Z,79.25
2018-11-06T19:18:50.547Z,79.53
2018-11-06T19:21:02.813Z,78.83
2018-11-06T19:23:15.133Z,79.55
2018-11-06T19:25:27.495Z,78.82
2018-11-06T19:27:39.767Z,78.71
2018-11-06T19:29:51.998Z,78.76
2018-11-06T19:32:04.808Z,78.69
2018-11-06T19:34:17.088Z,79.05
2018-11-06T19:36:29.406Z,79.07
2018-11-06T19:38:41.652Z,79.10
2018-11-06T19:40:53.945Z,79.11
2018-11-06T19:43:06.196Z,80.03
2018-11-06T19:45:18.445Z,80.18
2018-11-06T19:47:30.700Z,79.50
2018-11-06T19:49:43.064Z,79.63
2018-11-06T19:51:55.349Z,79.75
2018-11-06T19:54:07.648Z,79.76
2018-11-06T19:56:19.898Z,80.65
2018-11-06T19:58:32.124Z,79.61
2018-11-06T20:00:44.500Z,80.64
2018-11-06T20:02:56.668Z,79.80
2018-11-06T20:05:09.062Z,79.88
2018-11-06T20:07:21.267Z,79.94
2018-11-06T20:09:33.602Z,79.93
2018-11-06T20:11:45.866Z,80.11
2018-11-06T20:13:58.051Z,80.87
2018-11-06T20:16:10.348Z,80.17
2018-11-06T20:18:22.599Z,80.95
2018-11-06T20:20:34.881Z,80.32
2018-11-06T20:22:47.244Z,80.50
2018-11-06T20:24:59.508Z,80.59
2018-11-06T20:27:11.813Z,81.24
2018-11-06T20:29:24.104Z,81.22
2018-11-06T20:31:36.871Z,80.67
2018-11-06T20:33:49.240Z,81.31
2018-11-06T20:36:01.439Z,81.38
2018-11-06T20:38:13.694Z,81.30
2018-11-06T20:40:26.602Z,80.69
2018-11-06T20:42:39.242Z,81.33
2018-11-06T20:44:51.395Z,80.96
2018-11-06T20:47:03.905Z,80.68
2018-11-06T20:49:16.244Z,81.56
2018-11-06T20:51:28.498Z,80.89
2018-11-06T20:53:40.823Z,81.32
2018-11-06T20:55:53.069Z,80.76
2018-11-06T20:58:05.356Z,81.45
2018-11-06T21:00:21.808Z,81.75
2018-11-06T21:02:34.083Z,80.96
2018-11-06T21:04:46.311Z,80.82
2018-11-06T21:06:58.649Z,80.89
2018-11-06T21:09:11.289Z,81.62
2018-11-06T21:11:23.579Z,81.72
2018-11-06T21:13:35.863Z,81.27
2018-11-06T21:15:48.134Z,81.71
2018-11-06T21:18:00.482Z,81.17
2018-11-06T21:20:13.665Z,81.48
2018-11-06T21:22:25.879Z,82.83
2018-11-06T21:24:38.162Z,82.27
2018-11-06T21:26:50.459Z,81.90
2018-11-06T21:29:02.660Z,82.90
2018-11-06T21:31:15.033Z,82.50
2018-11-06T21:33:27.195Z,81.77
2018-11-06T21:35:39.459Z,82.74
2018-11-06T21:37:51.734Z,81.58
2018-11-06T21:40:05.701Z,81.57
2018-11-06T21:42:17.945Z,82.49
2018-11-06T21:44:30.211Z,81.63
2018-11-06T21:46:42.482Z,81.63
2018-11-06T21:48:54.715Z,82.07
2018-11-06T21:51:06.982Z,81.72
2018-11-06T21:53:19.206Z,82.36
2018-11-06T21:55:31.488Z,82.20
2018-11-06T21:57:43.751Z,81.22
2018-11-06T21:59:55.999Z,81.85
2018-11-06T22:02:08.256Z,82.07
2018-11-06T22:04:20.477Z,82.27
2018-11-06T22:06:32.722Z,82.08
2018-11-06T22:08:44.930Z,82.24
2018-11-06T22:10:57.139Z,82.19
2018-11-06T22:13:09.394Z,82.94
2018-11-06T22:15:21.642Z,82.46
2018-11-06T22:17:34.007Z,82.74
2018-11-06T22:19:46.238Z,82.10
2018-11-06T22:21:58.464Z,82.87
2018-11-06T22:24:10.667Z,82.16
2018-11-06T22:26:22.887Z,81.99
2018-11-06T22:28:35.134Z,82.06
2018-11-06T22:30:47.356Z,81.94
2018-11-06T22:32:59.599Z,81.67
2018-11-06T22:35:13.144Z,81.73
2018-11-06T22:37:25.445Z,82.13
2018-11-06T22:39:37.703Z,82.32
2018-11-06T22:41:49.988Z,81.73
2018-11-06T22:44:02.206Z,82.88
2018-11-06T22:46:14.465Z,83.72
2018-11-06T22:48:26.653Z,84.24
2018-11-06T22:50:38.915Z,84.15
2018-11-06T22:52:51.127Z,83.75
2018-11-06T22:55:03.731Z,83.64
2018-11-06T22:57:15.966Z,82.76
2018-11-06T22:59:28.225Z,83.29
2018-11-06T23:01:40.402Z,82.52
2018-11-06T23:03:53.459Z,83.24
2018-11-06T23:06:05.801Z,82.22
2018-11-06T23:08:25.003Z,82.17
2018-11-06T23:10:37.316Z,82.90
2018-11-06T23:12:49.527Z,82.81
2018-11-06T23:15:01.789Z,82.15
2018-11-06T23:17:14.031Z,82.93
2018-11-06T23:19:26.294Z,81.81
2018-11-06T23:21:38.526Z,82.73
2018-11-06T23:23:50.712Z,81.76
2018-11-06T23:26:03.042Z,82.17
2018-11-06T23:28:15.257Z,82.86
2018-11-06T23:30:27.499Z,81.82
2018-11-06T23:32:39.763Z,82.63
2018-11-06T23:34:52.006Z,81.91
2018-11-06T23:37:04.262Z,82.04
2018-11-06T23:39:16.474Z,83.15
2018-11-06T23:41:28.675Z,83.19
2018-11-06T23:43:40.906Z,82.81
2018-11-06T23:45:53.155Z,83.14
2018-11-06T23:48:05.439Z,82.81
2018-11-06T23:50:17.622Z,83.37
2018-11-06T23:52:29.855Z,84.14
2018-11-06T23:54:42.093Z,84.21
2018-11-06T23:56:54.294Z,85.06
2018-11-06T23:59:06.530Z,84.42
